sensor_id;sensor_type;location;lat;lon;timestamp;P1;durP1;ratioP1;P2;durP2;ratioP2
8909;SDS011;4490;49.072;8.804;2022-08-01T00:00:38;3.92;;;2.60;;
8909;SDS011;4490;49.072;8.804;2022-08-01T00:03:04;3.45;;;2.63;;
8909;SDS011;4490;49.072;8.804;2022-08-01T00:05:30;3.13;;;2.88;;
8909;SDS011;4490;49.072;8.804;2022-08-01T00:07:56;3.08;;;2.88;;
8909;SDS011;4490;49.072;8.804;2022-08-01T00:10:21;3.65;;;2.60;;
8909;SDS011;4490;49.072;8.804;2022-08-01T00:12:47;2.90;;;2.60;;
8909;SDS011;4490;49.072;8.804;2022-08-01T00:15:14;2.72;;;2.50;;
8909;SDS011;4490;49.072;8.804;2022-08-01T00:17:41;2.92;;;2.60;;
8909;SDS011;4490;49.072;8.804;2022-08-01T00:20:08;3.33;;;2.80;;
8909;SDS011;4490;49.072;8.804;2022-08-01T00:22:35;2.83;;;2.63;;
8909;SDS011;4490;49.072;8.804;2022-08-01T00:25:01;2.85;;;2.35;;
8909;SDS011;4490;49.072;8.804;2022-08-01T00:27:27;2.83;;;2.63;;
8909;SDS011;4490;49.072;8.804;2022-08-01T00:29:53;3.88;;;3.08;;
8909;SDS011;4490;49.072;8.804;2022-08-01T00:32:19;4.35;;;2.70;;
8909;SDS011;4490;49.072;8.804;2022-08-01T00:34:45;3.10;;;2.75;;
8909;SDS011;4490;49.072;8.804;2022-08-01T00:37:10;2.88;;;2.58;;
8909;SDS011;4490;49.072;8.804;2022-08-01T00:39:36;5.10;;;2.40;;
8909;SDS011;4490;49.072;8.804;2022-08-01T00:42:11;5.22;;;2.97;;
8909;SDS011;4490;49.072;8.804;2022-08-01T00:44:37;2.90;;;2.70;;
8909;SDS011;4490;49.072;8.804;2022-08-01T00:47:03;3.75;;;2.65;;
8909;SDS011;4490;49.072;8.804;2022-08-01T00:49:29;3.03;;;2.72;;
8909;SDS011;4490;49.072;8.804;2022-08-01T00:51:55;4.55;;;2.67;;
8909;SDS011;4490;49.072;8.804;2022-08-01T00:54:22;2.72;;;2.53;;
8909;SDS011;4490;49.072;8.804;2022-08-01T00:56:49;5.88;;;3.20;;
8909;SDS011;4490;49.072;8.804;2022-08-01T00:59:14;2.78;;;2.58;;
8909;SDS011;4490;49.072;8.804;2022-08-01T01:01:42;3.03;;;2.72;;
8909;SDS011;4490;49.072;8.804;2022-08-01T01:04:08;3.28;;;2.78;;
8909;SDS011;4490;49.072;8.804;2022-08-01T01:09:30;3.10;;;2.78;;
8909;SDS011;4490;49.072;8.804;2022-08-01T01:14:53;3.33;;;2.65;;
8909;SDS011;4490;49.072;8.804;2022-08-01T01:17:32;2.92;;;2.63;;
8909;SDS011;4490;49.072;8.804;2022-08-01T01:20:02;3.00;;;2.80;;
8909;SDS011;4490;49.072;8.804;2022-08-01T01:30:54;4.38;;;3.25;;
8909;SDS011;4490;49.072;8.804;2022-08-01T01:33:21;4.72;;;3.25;;
8909;SDS011;4490;49.072;8.804;2022-08-01T01:35:51;3.95;;;3.22;;
8909;SDS011;4490;49.072;8.804;2022-08-01T01:38:21;3.95;;;3.20;;
8909;SDS011;4490;49.072;8.804;2022-08-01T01:40:51;3.90;;;3.45;;
8909;SDS011;4490;49.072;8.804;2022-08-01T01:43:18;4.47;;;3.40;;
8909;SDS011;4490;49.072;8.804;2022-08-01T01:45:45;5.95;;;3.55;;
8909;SDS011;4490;49.072;8.804;2022-08-01T01:48:13;3.50;;;3.20;;
8909;SDS011;4490;49.072;8.804;2022-08-01T01:50:43;3.78;;;3.40;;
8909;SDS011;4490;49.072;8.804;2022-08-01T01:53:12;4.10;;;3.20;;
8909;SDS011;4490;49.072;8.804;2022-08-01T01:55:40;3.42;;;3.03;;
8909;SDS011;4490;49.072;8.804;2022-08-01T01:58:08;3.28;;;2.97;;
8909;SDS011;4490;49.072;8.804;2022-08-01T02:00:38;3.40;;;2.90;;
8909;SDS011;4490;49.072;8.804;2022-08-01T02:03:05;3.58;;;2.80;;
8909;SDS011;4490;49.072;8.804;2022-08-01T02:05:32;4.25;;;3.08;;
8909;SDS011;4490;49.072;8.804;2022-08-01T02:08:00;4.60;;;3.20;;
8909;SDS011;4490;49.072;8.804;2022-08-01T02:10:27;3.05;;;2.83;;
8909;SDS011;4490;49.072;8.804;2022-08-01T02:12:54;3.58;;;2.80;;
8909;SDS011;4490;49.072;8.804;2022-08-01T02:15:22;3.10;;;2.80;;
8909;SDS011;4490;49.072;8.804;2022-08-01T02:17:49;3.10;;;2.80;;
8909;SDS011;4490;49.072;8.804;2022-08-01T02:20:16;3.53;;;3.22;;
8909;SDS011;4490;49.072;8.804;2022-08-01T02:22:44;2.80;;;2.60;;
8909;SDS011;4490;49.072;8.804;2022-08-01T02:30:26;3.50;;;3.20;;
8909;SDS011;4490;49.072;8.804;2022-08-01T02:33:02;5.50;;;3.28;;
8909;SDS011;4490;49.072;8.804;2022-08-01T02:35:32;7.55;;;3.00;;
8909;SDS011;4490;49.072;8.804;2022-08-01T02:38:01;4.30;;;2.88;;
8909;SDS011;4490;49.072;8.804;2022-08-01T02:40:29;4.43;;;2.90;;
8909;SDS011;4490;49.072;8.804;2022-08-01T02:42:59;3.05;;;2.70;;
8909;SDS011;4490;49.072;8.804;2022-08-01T02:45:27;5.80;;;3.17;;
8909;SDS011;4490;49.072;8.804;2022-08-01T02:48:06;4.82;;;3.28;;
8909;SDS011;4490;49.072;8.804;2022-08-01T02:50:35;3.53;;;3.20;;
8909;SDS011;4490;49.072;8.804;2022-08-01T02:53:02;3.40;;;2.78;;
8909;SDS011;4490;49.072;8.804;2022-08-01T02:55:31;3.78;;;2.85;;
8909;SDS011;4490;49.072;8.804;2022-08-01T02:57:58;3.33;;;2.95;;
8909;SDS011;4490;49.072;8.804;2022-08-01T03:00:25;3.38;;;3.05;;
8909;SDS011;4490;49.072;8.804;2022-08-01T03:02:52;4.20;;;3.00;;
8909;SDS011;4490;49.072;8.804;2022-08-01T03:05:20;3.50;;;3.08;;
8909;SDS011;4490;49.072;8.804;2022-08-01T03:07:46;3.50;;;3.00;;
8909;SDS011;4490;49.072;8.804;2022-08-01T03:10:13;5.03;;;3.35;;
8909;SDS011;4490;49.072;8.804;2022-08-01T03:12:41;3.30;;;3.00;;
8909;SDS011;4490;49.072;8.804;2022-08-01T03:15:08;3.47;;;3.03;;
8909;SDS011;4490;49.072;8.804;2022-08-01T03:17:35;3.78;;;3.00;;
8909;SDS011;4490;49.072;8.804;2022-08-01T03:20:02;3.70;;;3.20;;
8909;SDS011;4490;49.072;8.804;2022-08-01T03:22:29;4.40;;;3.03;;
8909;SDS011;4490;49.072;8.804;2022-08-01T03:24:57;4.60;;;2.88;;
8909;SDS011;4490;49.072;8.804;2022-08-01T03:27:25;4.30;;;3.00;;
8909;SDS011;4490;49.072;8.804;2022-08-01T03:29:51;3.17;;;2.90;;
8909;SDS011;4490;49.072;8.804;2022-08-01T03:32:19;3.10;;;2.90;;
8909;SDS011;4490;49.072;8.804;2022-08-01T03:34:47;3.50;;;2.93;;
8909;SDS011;4490;49.072;8.804;2022-08-01T03:37:24;6.17;;;3.10;;
8909;SDS011;4490;49.072;8.804;2022-08-01T03:39:57;3.17;;;2.87;;
8909;SDS011;4490;49.072;8.804;2022-08-01T03:42:28;3.00;;;2.80;;
8909;SDS011;4490;49.072;8.804;2022-08-01T03:44:59;3.30;;;3.00;;
8909;SDS011;4490;49.072;8.804;2022-08-01T03:47:34;4.17;;;3.20;;
8909;SDS011;4490;49.072;8.804;2022-08-01T03:50:02;7.93;;;3.22;;
8909;SDS011;4490;49.072;8.804;2022-08-01T03:52:30;5.57;;;2.90;;
8909;SDS011;4490;49.072;8.804;2022-08-01T03:54:59;3.47;;;2.90;;
8909;SDS011;4490;49.072;8.804;2022-08-01T03:57:28;3.33;;;3.03;;
8909;SDS011;4490;49.072;8.804;2022-08-01T03:59:57;4.30;;;2.97;;
8909;SDS011;4490;49.072;8.804;2022-08-01T04:02:23;3.20;;;2.95;;
8909;SDS011;4490;49.072;8.804;2022-08-01T04:04:52;5.32;;;3.10;;
8909;SDS011;4490;49.072;8.804;2022-08-01T04:07:21;3.07;;;2.77;;
8909;SDS011;4490;49.072;8.804;2022-08-01T04:09:48;3.77;;;3.00;;
8909;SDS011;4490;49.072;8.804;2022-08-01T04:12:14;4.05;;;2.83;;
8909;SDS011;4490;49.072;8.804;2022-08-01T04:14:39;4.00;;;3.00;;
8909;SDS011;4490;49.072;8.804;2022-08-01T04:17:05;3.40;;;3.10;;
8909;SDS011;4490;49.072;8.804;2022-08-01T04:19:31;3.92;;;3.15;;
8909;SDS011;4490;49.072;8.804;2022-08-01T04:21:56;3.45;;;3.15;;
8909;SDS011;4490;49.072;8.804;2022-08-01T04:24:22;3.33;;;3.03;;
8909;SDS011;4490;49.072;8.804;2022-08-01T04:26:50;3.57;;;3.10;;
8909;SDS011;4490;49.072;8.804;2022-08-01T04:29:17;3.50;;;3.20;;
8909;SDS011;4490;49.072;8.804;2022-08-01T04:31:46;2.87;;;2.67;;
8909;SDS011;4490;49.072;8.804;2022-08-01T04:34:16;3.20;;;2.90;;
8909;SDS011;4490;49.072;8.804;2022-08-01T04:36:44;7.25;;;2.83;;
8909;SDS011;4490;49.072;8.804;2022-08-01T04:39:10;3.13;;;2.83;;
8909;SDS011;4490;49.072;8.804;2022-08-01T04:41:38;3.40;;;3.10;;
8909;SDS011;4490;49.072;8.804;2022-08-01T04:44:04;3.57;;;3.27;;
8909;SDS011;4490;49.072;8.804;2022-08-01T04:46:31;3.63;;;3.33;;
8909;SDS011;4490;49.072;8.804;2022-08-01T04:48:59;3.40;;;3.10;;
8909;SDS011;4490;49.072;8.804;2022-08-01T04:51:25;3.47;;;3.17;;
8909;SDS011;4490;49.072;8.804;2022-08-01T04:53:51;3.57;;;3.07;;
8909;SDS011;4490;49.072;8.804;2022-08-01T04:56:17;3.33;;;3.03;;
8909;SDS011;4490;49.072;8.804;2022-08-01T04:58:44;4.93;;;3.20;;
8909;SDS011;4490;49.072;8.804;2022-08-01T05:01:10;3.47;;;3.17;;
8909;SDS011;4490;49.072;8.804;2022-08-01T05:03:36;3.47;;;3.17;;
8909;SDS011;4490;49.072;8.804;2022-08-01T05:06:02;4.23;;;3.00;;
8909;SDS011;4490;49.072;8.804;2022-08-01T05:08:28;3.93;;;3.03;;
8909;SDS011;4490;49.072;8.804;2022-08-01T05:10:53;3.90;;;3.13;;
8909;SDS011;4490;49.072;8.804;2022-08-01T05:13:19;4.77;;;3.50;;
8909;SDS011;4490;49.072;8.804;2022-08-01T05:15:45;3.75;;;3.30;;
8909;SDS011;4490;49.072;8.804;2022-08-01T05:18:10;6.37;;;3.40;;
8909;SDS011;4490;49.072;8.804;2022-08-01T05:20:36;6.20;;;3.20;;
8909;SDS011;4490;49.072;8.804;2022-08-01T05:23:03;4.37;;;3.70;;
8909;SDS011;4490;49.072;8.804;2022-08-01T05:25:31;4.70;;;3.43;;
8909;SDS011;4490;49.072;8.804;2022-08-01T05:27:58;4.27;;;3.27;;
8909;SDS011;4490;49.072;8.804;2022-08-01T05:30:23;3.27;;;2.97;;
8909;SDS011;4490;49.072;8.804;2022-08-01T05:32:49;5.90;;;3.20;;
8909;SDS011;4490;49.072;8.804;2022-08-01T05:35:15;3.37;;;2.70;;
8909;SDS011;4490;49.072;8.804;2022-08-01T05:37:40;3.93;;;3.27;;
8909;SDS011;4490;49.072;8.804;2022-08-01T05:40:06;3.17;;;2.90;;
8909;SDS011;4490;49.072;8.804;2022-08-01T05:42:32;3.30;;;3.00;;
8909;SDS011;4490;49.072;8.804;2022-08-01T05:44:57;5.10;;;3.00;;
8909;SDS011;4490;49.072;8.804;2022-08-01T05:47:23;3.27;;;2.97;;
8909;SDS011;4490;49.072;8.804;2022-08-01T05:49:49;4.50;;;2.67;;
8909;SDS011;4490;49.072;8.804;2022-08-01T05:52:14;3.30;;;2.67;;
8909;SDS011;4490;49.072;8.804;2022-08-01T05:54:40;5.37;;;2.90;;
8909;SDS011;4490;49.072;8.804;2022-08-01T05:57:05;3.10;;;2.80;;
8909;SDS011;4490;49.072;8.804;2022-08-01T05:59:31;3.22;;;2.92;;
8909;SDS011;4490;49.072;8.804;2022-08-01T06:01:58;4.13;;;2.88;;
8909;SDS011;4490;49.072;8.804;2022-08-01T06:04:23;3.13;;;2.75;;
8909;SDS011;4490;49.072;8.804;2022-08-01T06:06:49;3.10;;;2.80;;
8909;SDS011;4490;49.072;8.804;2022-08-01T06:09:14;4.28;;;2.80;;
8909;SDS011;4490;49.072;8.804;2022-08-01T06:11:40;4.07;;;3.40;;
8909;SDS011;4490;49.072;8.804;2022-08-01T06:14:06;2.90;;;2.70;;
8909;SDS011;4490;49.072;8.804;2022-08-01T06:16:31;3.83;;;2.90;;
8909;SDS011;4490;49.072;8.804;2022-08-01T06:18:57;7.78;;;3.38;;
8909;SDS011;4490;49.072;8.804;2022-08-01T06:21:23;4.20;;;2.80;;
8909;SDS011;4490;49.072;8.804;2022-08-01T06:23:48;3.63;;;3.08;;
8909;SDS011;4490;49.072;8.804;2022-08-01T06:26:17;3.75;;;3.05;;
8909;SDS011;4490;49.072;8.804;2022-08-01T06:28:43;4.60;;;2.83;;
8909;SDS011;4490;49.072;8.804;2022-08-01T06:31:08;3.22;;;2.92;;
8909;SDS011;4490;49.072;8.804;2022-08-01T06:33:36;5.75;;;3.13;;
8909;SDS011;4490;49.072;8.804;2022-08-01T06:36:02;2.90;;;2.70;;
8909;SDS011;4490;49.072;8.804;2022-08-01T06:38:28;4.28;;;2.47;;
8909;SDS011;4490;49.072;8.804;2022-08-01T06:40:53;2.97;;;2.78;;
8909;SDS011;4490;49.072;8.804;2022-08-01T06:43:19;3.38;;;2.30;;
8909;SDS011;4490;49.072;8.804;2022-08-01T06:45:46;2.97;;;2.33;;
8909;SDS011;4490;49.072;8.804;2022-08-01T06:48:11;3.40;;;2.30;;
8909;SDS011;4490;49.072;8.804;2022-08-01T06:50:37;3.75;;;2.30;;
8909;SDS011;4490;49.072;8.804;2022-08-01T06:53:03;4.28;;;2.55;;
8909;SDS011;4490;49.072;8.804;2022-08-01T06:55:28;3.13;;;2.30;;
8909;SDS011;4490;49.072;8.804;2022-08-01T06:57:54;3.42;;;2.20;;
8909;SDS011;4490;49.072;8.804;2022-08-01T07:00:21;2.40;;;2.20;;
8909;SDS011;4490;49.072;8.804;2022-08-01T07:02:57;3.17;;;1.80;;
8909;SDS011;4490;49.072;8.804;2022-08-01T07:05:26;2.55;;;1.92;;
8909;SDS011;4490;49.072;8.804;2022-08-01T07:07:51;3.70;;;1.98;;
8909;SDS011;4490;49.072;8.804;2022-08-01T07:10:17;1.75;;;1.65;;
8909;SDS011;4490;49.072;8.804;2022-08-01T07:12:43;3.70;;;1.77;;
8909;SDS011;4490;49.072;8.804;2022-08-01T07:15:09;2.15;;;1.75;;
8909;SDS011;4490;49.072;8.804;2022-08-01T07:17:38;4.47;;;2.05;;
8909;SDS011;4490;49.072;8.804;2022-08-01T07:20:06;2.10;;;1.98;;
8909;SDS011;4490;49.072;8.804;2022-08-01T07:22:33;3.35;;;1.88;;
8909;SDS011;4490;49.072;8.804;2022-08-01T07:24:59;2.83;;;2.08;;
8909;SDS011;4490;49.072;8.804;2022-08-01T07:27:24;6.90;;;2.10;;
8909;SDS011;4490;49.072;8.804;2022-08-01T07:29:50;2.30;;;2.10;;
8909;SDS011;4490;49.072;8.804;2022-08-01T07:32:15;2.13;;;1.85;;
8909;SDS011;4490;49.072;8.804;2022-08-01T07:34:41;1.80;;;1.70;;
8909;SDS011;4490;49.072;8.804;2022-08-01T07:37:07;3.45;;;2.00;;
8909;SDS011;4490;49.072;8.804;2022-08-01T07:39:32;2.35;;;2.15;;
8909;SDS011;4490;49.072;8.804;2022-08-01T07:41:58;2.13;;;1.92;;
8909;SDS011;4490;49.072;8.804;2022-08-01T07:44:23;2.15;;;1.95;;
8909;SDS011;4490;49.072;8.804;2022-08-01T07:46:49;2.90;;;2.05;;
8909;SDS011;4490;49.072;8.804;2022-08-01T07:49:15;2.40;;;2.03;;
8909;SDS011;4490;49.072;8.804;2022-08-01T07:51:40;2.92;;;1.80;;
8909;SDS011;4490;49.072;8.804;2022-08-01T07:54:06;3.13;;;2.10;;
8909;SDS011;4490;49.072;8.804;2022-08-01T07:56:32;2.10;;;1.90;;
8909;SDS011;4490;49.072;8.804;2022-08-01T07:58:58;2.83;;;2.03;;
8909;SDS011;4490;49.072;8.804;2022-08-01T08:01:23;2.35;;;2.05;;
8909;SDS011;4490;49.072;8.804;2022-08-01T08:03:49;2.25;;;2.05;;
8909;SDS011;4490;49.072;8.804;2022-08-01T08:06:15;3.88;;;2.28;;
8909;SDS011;4490;49.072;8.804;2022-08-01T08:08:40;3.53;;;2.15;;
8909;SDS011;4490;49.072;8.804;2022-08-01T08:11:06;58.90;;;5.55;;
8909;SDS011;4490;49.072;8.804;2022-08-01T08:13:31;2.88;;;2.10;;
8909;SDS011;4490;49.072;8.804;2022-08-01T08:15:57;12.57;;;2.42;;
8909;SDS011;4490;49.072;8.804;2022-08-01T08:18:24;2.08;;;1.98;;
8909;SDS011;4490;49.072;8.804;2022-08-01T08:20:50;5.28;;;2.20;;
8909;SDS011;4490;49.072;8.804;2022-08-01T08:23:16;2.60;;;1.88;;
8909;SDS011;4490;49.072;8.804;2022-08-01T08:26:00;27.45;;;2.80;;
8909;SDS011;4490;49.072;8.804;2022-08-01T08:28:25;2.58;;;1.77;;
8909;SDS011;4490;49.072;8.804;2022-08-01T08:30:51;1.60;;;1.50;;
8909;SDS011;4490;49.072;8.804;2022-08-01T08:33:18;1.92;;;1.60;;
8909;SDS011;4490;49.072;8.804;2022-08-01T08:35:43;3.70;;;1.70;;
8909;SDS011;4490;49.072;8.804;2022-08-01T08:38:09;4.90;;;2.05;;
8909;SDS011;4490;49.072;8.804;2022-08-01T08:40:35;1.80;;;1.70;;
8909;SDS011;4490;49.072;8.804;2022-08-01T08:43:03;2.13;;;1.85;;
8909;SDS011;4490;49.072;8.804;2022-08-01T08:45:30;2.08;;;1.70;;
8909;SDS011;4490;49.072;8.804;2022-08-01T08:47:56;1.83;;;1.70;;
8909;SDS011;4490;49.072;8.804;2022-08-01T08:50:22;2.97;;;1.85;;
8909;SDS011;4490;49.072;8.804;2022-08-01T08:52:50;3.63;;;1.75;;
8909;SDS011;4490;49.072;8.804;2022-08-01T08:55:17;2.38;;;2.17;;
8909;SDS011;4490;49.072;8.804;2022-08-01T08:57:43;2.75;;;1.90;;
8909;SDS011;4490;49.072;8.804;2022-08-01T09:00:10;2.63;;;1.70;;
8909;SDS011;4490;49.072;8.804;2022-08-01T09:02:42;2.10;;;2.00;;
8909;SDS011;4490;49.072;8.804;2022-08-01T09:05:09;2.13;;;1.92;;
8909;SDS011;4490;49.072;8.804;2022-08-01T09:07:35;1.83;;;1.70;;
8909;SDS011;4490;49.072;8.804;2022-08-01T09:10:01;2.67;;;1.70;;
8909;SDS011;4490;49.072;8.804;2022-08-01T09:12:28;1.98;;;1.77;;
8909;SDS011;4490;49.072;8.804;2022-08-01T09:14:54;3.15;;;1.75;;
8909;SDS011;4490;49.072;8.804;2022-08-01T09:17:19;2.95;;;1.80;;
8909;SDS011;4490;49.072;8.804;2022-08-01T09:19:46;2.08;;;1.70;;
8909;SDS011;4490;49.072;8.804;2022-08-01T09:22:15;2.15;;;1.77;;
8909;SDS011;4490;49.072;8.804;2022-08-01T09:24:59;2.20;;;1.90;;
8909;SDS011;4490;49.072;8.804;2022-08-01T09:27:27;1.98;;;1.88;;
8909;SDS011;4490;49.072;8.804;2022-08-01T09:29:54;1.95;;;1.80;;
8909;SDS011;4490;49.072;8.804;2022-08-01T09:32:31;2.35;;;1.98;;
8909;SDS011;4490;49.072;8.804;2022-08-01T09:34:56;3.08;;;1.88;;
8909;SDS011;4490;49.072;8.804;2022-08-01T09:37:42;2.28;;;1.63;;
8909;SDS011;4490;49.072;8.804;2022-08-01T09:40:08;3.08;;;1.90;;
8909;SDS011;4490;49.072;8.804;2022-08-01T09:42:34;4.20;;;1.85;;
8909;SDS011;4490;49.072;8.804;2022-08-01T09:44:59;2.05;;;1.85;;
8909;SDS011;4490;49.072;8.804;2022-08-01T09:47:36;2.10;;;1.90;;
8909;SDS011;4490;49.072;8.804;2022-08-01T09:50:05;2.85;;;1.70;;
8909;SDS011;4490;49.072;8.804;2022-08-01T09:52:32;2.20;;;2.00;;
8909;SDS011;4490;49.072;8.804;2022-08-01T09:55:02;1.92;;;1.75;;
8909;SDS011;4490;49.072;8.804;2022-08-01T09:57:30;1.83;;;1.73;;
8909;SDS011;4490;49.072;8.804;2022-08-01T09:59:56;1.90;;;1.80;;
8909;SDS011;4490;49.072;8.804;2022-08-01T10:02:37;2.10;;;1.90;;
8909;SDS011;4490;49.072;8.804;2022-08-01T10:05:07;2.08;;;1.85;;
8909;SDS011;4490;49.072;8.804;2022-08-01T10:07:35;3.00;;;1.80;;
8909;SDS011;4490;49.072;8.804;2022-08-01T10:10:19;3.35;;;2.10;;
8909;SDS011;4490;49.072;8.804;2022-08-01T10:12:44;2.40;;;1.90;;
8909;SDS011;4490;49.072;8.804;2022-08-01T10:15:15;2.03;;;1.80;;
8909;SDS011;4490;49.072;8.804;2022-08-01T10:17:44;2.00;;;1.88;;
8909;SDS011;4490;49.072;8.804;2022-08-01T10:20:23;2.20;;;1.85;;
8909;SDS011;4490;49.072;8.804;2022-08-01T10:22:54;2.35;;;2.00;;
8909;SDS011;4490;49.072;8.804;2022-08-01T10:25:22;1.98;;;1.88;;
8909;SDS011;4490;49.072;8.804;2022-08-01T10:27:52;4.13;;;2.20;;
8909;SDS011;4490;49.072;8.804;2022-08-01T10:30:23;3.05;;;2.05;;
8909;SDS011;4490;49.072;8.804;2022-08-01T10:32:51;2.10;;;1.98;;
8909;SDS011;4490;49.072;8.804;2022-08-01T10:35:18;2.38;;;2.17;;
8909;SDS011;4490;49.072;8.804;2022-08-01T10:37:46;1.80;;;1.70;;
8909;SDS011;4490;49.072;8.804;2022-08-01T10:40:12;3.53;;;2.00;;
8909;SDS011;4490;49.072;8.804;2022-08-01T10:42:42;2.60;;;1.90;;
8909;SDS011;4490;49.072;8.804;2022-08-01T10:45:09;3.33;;;2.20;;
8909;SDS011;4490;49.072;8.804;2022-08-01T10:47:48;2.00;;;1.90;;
8909;SDS011;4490;49.072;8.804;2022-08-01T10:58:10;4.07;;;2.30;;
8909;SDS011;4490;49.072;8.804;2022-08-01T11:00:36;12.57;;;2.60;;
8909;SDS011;4490;49.072;8.804;2022-08-01T11:03:03;14.50;;;2.90;;
8909;SDS011;4490;49.072;8.804;2022-08-01T11:05:33;10.85;;;2.30;;
8909;SDS011;4490;49.072;8.804;2022-08-01T11:08:21;18.88;;;2.78;;
8909;SDS011;4490;49.072;8.804;2022-08-01T11:10:47;9.90;;;2.50;;
8909;SDS011;4490;49.072;8.804;2022-08-01T11:13:13;6.05;;;2.58;;
8909;SDS011;4490;49.072;8.804;2022-08-01T11:15:39;2.10;;;1.90;;
8909;SDS011;4490;49.072;8.804;2022-08-01T11:20:55;3.90;;;1.83;;
8909;SDS011;4490;49.072;8.804;2022-08-01T11:23:27;2.42;;;1.92;;
8909;SDS011;4490;49.072;8.804;2022-08-01T11:28:20;2.00;;;1.90;;
8909;SDS011;4490;49.072;8.804;2022-08-01T11:30:49;1.83;;;1.73;;
8909;SDS011;4490;49.072;8.804;2022-08-01T11:33:17;2.88;;;2.08;;
8909;SDS011;4490;49.072;8.804;2022-08-01T11:38:45;2.92;;;1.83;;
8909;SDS011;4490;49.072;8.804;2022-08-01T11:41:21;2.80;;;1.80;;
8909;SDS011;4490;49.072;8.804;2022-08-01T11:44:00;2.08;;;1.55;;
8909;SDS011;4490;49.072;8.804;2022-08-01T11:49:29;1.98;;;1.65;;
8909;SDS011;4490;49.072;8.804;2022-08-01T11:54:33;2.53;;;1.70;;
8909;SDS011;4490;49.072;8.804;2022-08-01T11:57:43;1.90;;;1.58;;
8909;SDS011;4490;49.072;8.804;2022-08-01T11:59:56;1.88;;;1.60;;
8909;SDS011;4490;49.072;8.804;2022-08-01T12:02:24;2.22;;;1.60;;
8909;SDS011;4490;49.072;8.804;2022-08-01T12:04:56;3.40;;;1.90;;
8909;SDS011;4490;49.072;8.804;2022-08-01T12:07:23;1.92;;;1.63;;
8909;SDS011;4490;49.072;8.804;2022-08-01T12:10:25;1.50;;;1.40;;
8909;SDS011;4490;49.072;8.804;2022-08-01T12:12:45;2.53;;;1.90;;
8909;SDS011;4490;49.072;8.804;2022-08-01T12:15:12;2.30;;;1.80;;
8909;SDS011;4490;49.072;8.804;2022-08-01T12:17:39;3.70;;;1.67;;
8909;SDS011;4490;49.072;8.804;2022-08-01T12:20:13;4.15;;;1.65;;
8909;SDS011;4490;49.072;8.804;2022-08-01T12:22:46;2.33;;;1.80;;
8909;SDS011;4490;49.072;8.804;2022-08-01T12:25:16;2.17;;;1.98;;
8909;SDS011;4490;49.072;8.804;2022-08-01T12:27:43;2.47;;;1.60;;
8909;SDS011;4490;49.072;8.804;2022-08-01T12:30:11;2.78;;;1.90;;
8909;SDS011;4490;49.072;8.804;2022-08-01T12:32:43;2.97;;;1.90;;
8909;SDS011;4490;49.072;8.804;2022-08-01T12:35:15;3.05;;;1.80;;
8909;SDS011;4490;49.072;8.804;2022-08-01T12:37:43;1.80;;;1.70;;
8909;SDS011;4490;49.072;8.804;2022-08-01T12:40:18;1.58;;;1.48;;
8909;SDS011;4490;49.072;8.804;2022-08-01T12:42:48;2.13;;;1.77;;
8909;SDS011;4490;49.072;8.804;2022-08-01T12:45:17;3.33;;;1.67;;
8909;SDS011;4490;49.072;8.804;2022-08-01T12:47:44;1.95;;;1.73;;
8909;SDS011;4490;49.072;8.804;2022-08-01T12:50:12;1.83;;;1.60;;
8909;SDS011;4490;49.072;8.804;2022-08-01T12:52:45;1.90;;;1.80;;
8909;SDS011;4490;49.072;8.804;2022-08-01T12:55:13;3.30;;;1.75;;
8909;SDS011;4490;49.072;8.804;2022-08-01T12:57:44;1.83;;;1.73;;
8909;SDS011;4490;49.072;8.804;2022-08-01T13:00:23;2.03;;;1.83;;
8909;SDS011;4490;49.072;8.804;2022-08-01T13:02:50;2.25;;;2.03;;
8909;SDS011;4490;49.072;8.804;2022-08-01T13:05:40;2.20;;;2.00;;
8909;SDS011;4490;49.072;8.804;2022-08-01T13:08:13;2.47;;;2.00;;
8909;SDS011;4490;49.072;8.804;2022-08-01T13:11:00;2.13;;;1.90;;
8909;SDS011;4490;49.072;8.804;2022-08-01T13:13:43;1.90;;;1.80;;
8909;SDS011;4490;49.072;8.804;2022-08-01T13:16:13;1.85;;;1.75;;
8909;SDS011;4490;49.072;8.804;2022-08-01T13:18:50;2.67;;;1.77;;
8909;SDS011;4490;49.072;8.804;2022-08-01T13:21:24;2.38;;;1.80;;
8909;SDS011;4490;49.072;8.804;2022-08-01T13:24:00;2.30;;;1.60;;
8909;SDS011;4490;49.072;8.804;2022-08-01T13:26:46;2.45;;;1.70;;
8909;SDS011;4490;49.072;8.804;2022-08-01T13:29:13;2.28;;;1.80;;
8909;SDS011;4490;49.072;8.804;2022-08-01T13:31:41;3.15;;;1.60;;
8909;SDS011;4490;49.072;8.804;2022-08-01T13:34:07;1.90;;;1.80;;
8909;SDS011;4490;49.072;8.804;2022-08-01T13:36:33;2.97;;;1.70;;
8909;SDS011;4490;49.072;8.804;2022-08-01T13:39:00;1.55;;;1.45;;
8909;SDS011;4490;49.072;8.804;2022-08-01T13:41:45;2.15;;;1.75;;
8909;SDS011;4490;49.072;8.804;2022-08-01T13:44:11;1.90;;;1.80;;
8909;SDS011;4490;49.072;8.804;2022-08-01T13:46:38;2.53;;;1.90;;
8909;SDS011;4490;49.072;8.804;2022-08-01T13:49:05;1.70;;;1.60;;
8909;SDS011;4490;49.072;8.804;2022-08-01T13:51:32;1.83;;;1.73;;
8909;SDS011;4490;49.072;8.804;2022-08-01T13:53:58;2.28;;;1.83;;
8909;SDS011;4490;49.072;8.804;2022-08-01T13:56:24;1.80;;;1.70;;
8909;SDS011;4490;49.072;8.804;2022-08-01T13:58:52;2.05;;;1.77;;
8909;SDS011;4490;49.072;8.804;2022-08-01T14:01:19;3.83;;;1.50;;
8909;SDS011;4490;49.072;8.804;2022-08-01T14:03:45;1.85;;;1.58;;
8909;SDS011;4490;49.072;8.804;2022-08-01T14:06:11;1.88;;;1.60;;
8909;SDS011;4490;49.072;8.804;2022-08-01T14:08:37;1.50;;;1.40;;
8909;SDS011;4490;49.072;8.804;2022-08-01T14:11:04;2.08;;;1.50;;
8909;SDS011;4490;49.072;8.804;2022-08-01T14:13:29;1.83;;;1.50;;
8909;SDS011;4490;49.072;8.804;2022-08-01T14:15:55;1.90;;;1.80;;
8909;SDS011;4490;49.072;8.804;2022-08-01T14:18:21;3.03;;;2.00;;
8909;SDS011;4490;49.072;8.804;2022-08-01T14:20:47;1.40;;;1.40;;
8909;SDS011;4490;49.072;8.804;2022-08-01T14:23:12;1.50;;;1.40;;
8909;SDS011;4490;49.072;8.804;2022-08-01T14:25:38;1.58;;;1.48;;
8909;SDS011;4490;49.072;8.804;2022-08-01T14:28:05;1.60;;;1.50;;
8909;SDS011;4490;49.072;8.804;2022-08-01T14:30:31;1.55;;;1.45;;
8909;SDS011;4490;49.072;8.804;2022-08-01T14:32:58;1.77;;;1.50;;
8909;SDS011;4490;49.072;8.804;2022-08-01T14:35:24;1.75;;;1.65;;
8909;SDS011;4490;49.072;8.804;2022-08-01T14:37:50;1.70;;;1.60;;
8909;SDS011;4490;49.072;8.804;2022-08-01T14:40:16;2.63;;;1.40;;
8909;SDS011;4490;49.072;8.804;2022-08-01T14:42:42;1.73;;;1.63;;
8909;SDS011;4490;49.072;8.804;2022-08-01T14:45:11;1.60;;;1.27;;
8909;SDS011;4490;49.072;8.804;2022-08-01T14:47:38;1.50;;;1.40;;
8909;SDS011;4490;49.072;8.804;2022-08-01T14:50:05;1.63;;;1.40;;
8909;SDS011;4490;49.072;8.804;2022-08-01T14:52:32;1.48;;;1.38;;
8909;SDS011;4490;49.072;8.804;2022-08-01T14:54:59;1.50;;;1.40;;
8909;SDS011;4490;49.072;8.804;2022-08-01T14:57:25;2.58;;;1.65;;
8909;SDS011;4490;49.072;8.804;2022-08-01T14:59:50;4.57;;;1.85;;
8909;SDS011;4490;49.072;8.804;2022-08-01T15:02:16;2.70;;;1.48;;
8909;SDS011;4490;49.072;8.804;2022-08-01T15:04:45;1.83;;;1.40;;
8909;SDS011;4490;49.072;8.804;2022-08-01T15:07:11;3.13;;;1.38;;
8909;SDS011;4490;49.072;8.804;2022-08-01T15:09:37;2.78;;;1.35;;
8909;SDS011;4490;49.072;8.804;2022-08-01T15:12:03;1.45;;;1.33;;
8909;SDS011;4490;49.072;8.804;2022-08-01T15:14:29;1.90;;;1.55;;
8909;SDS011;4490;49.072;8.804;2022-08-01T15:17:12;2.17;;;1.65;;
8909;SDS011;4490;49.072;8.804;2022-08-01T15:19:39;1.40;;;1.30;;
8909;SDS011;4490;49.072;8.804;2022-08-01T15:22:04;2.03;;;1.30;;
8909;SDS011;4490;49.072;8.804;2022-08-01T15:24:33;3.47;;;1.88;;
8909;SDS011;4490;49.072;8.804;2022-08-01T15:26:58;1.60;;;1.50;;
8909;SDS011;4490;49.072;8.804;2022-08-01T15:29:24;3.15;;;1.50;;
8909;SDS011;4490;49.072;8.804;2022-08-01T15:31:50;2.97;;;1.30;;
8909;SDS011;4490;49.072;8.804;2022-08-01T15:34:15;1.70;;;1.30;;
8909;SDS011;4490;49.072;8.804;2022-08-01T15:36:42;2.25;;;1.45;;
8909;SDS011;4490;49.072;8.804;2022-08-01T15:39:08;2.80;;;1.30;;
8909;SDS011;4490;49.072;8.804;2022-08-01T15:41:34;5.40;;;1.70;;
8909;SDS011;4490;49.072;8.804;2022-08-01T15:44:00;1.77;;;1.40;;
8909;SDS011;4490;49.072;8.804;2022-08-01T15:46:26;1.60;;;1.50;;
8909;SDS011;4490;49.072;8.804;2022-08-01T15:48:52;1.42;;;1.33;;
8909;SDS011;4490;49.072;8.804;2022-08-01T15:51:17;1.50;;;1.40;;
8909;SDS011;4490;49.072;8.804;2022-08-01T15:53:43;1.50;;;1.40;;
8909;SDS011;4490;49.072;8.804;2022-08-01T15:56:11;1.40;;;1.30;;
8909;SDS011;4490;49.072;8.804;2022-08-01T15:58:36;1.88;;;1.20;;
8909;SDS011;4490;49.072;8.804;2022-08-01T16:01:02;1.70;;;1.30;;